sensor_id;sensor_type;location;lat;lon;timestamp;P1;durP1;ratioP1;P2;durP2;ratioP2
417;SDS011;49;48.530;9.200;2023-06-10T00:01:37;13.77;;;9.07;;
417;SDS011;49;48.530;9.200;2023-06-10T00:04:04;11.57;;;8.90;;
417;SDS011;49;48.530;9.200;2023-06-10T00:06:31;15.13;;;9.07;;
417;SDS011;49;48.530;9.200;2023-06-10T00:09:01;17.67;;;9.53;;
417;SDS011;49;48.530;9.200;2023-06-10T00:11:29;14.77;;;9.20;;
417;SDS011;49;48.530;9.200;2023-06-10T00:13:56;17.03;;;9.37;;
417;SDS011;49;48.530;9.200;2023-06-10T00:16:24;12.70;;;9.57;;
417;SDS011;49;48.530;9.200;2023-06-10T00:18:52;16.10;;;10.80;;
417;SDS011;49;48.530;9.200;2023-06-10T00:21:21;16.30;;;8.63;;
417;SDS011;49;48.530;9.200;2023-06-10T00:23:49;15.60;;;9.70;;
417;SDS011;49;48.530;9.200;2023-06-10T00:26:17;15.67;;;8.90;;
417;SDS011;49;48.530;9.200;2023-06-10T00:28:43;13.37;;;9.40;;
417;SDS011;49;48.530;9.200;2023-06-10T00:31:11;14.73;;;9.20;;
417;SDS011;49;48.530;9.200;2023-06-10T00:33:39;17.03;;;8.70;;
417;SDS011;49;48.530;9.200;2023-06-10T00:36:06;10.50;;;8.27;;
417;SDS011;49;48.530;9.200;2023-06-10T00:38:33;15.27;;;8.60;;
417;SDS011;49;48.530;9.200;2023-06-10T00:41:00;14.73;;;9.27;;
417;SDS011;49;48.530;9.200;2023-06-10T00:43:27;27.73;;;10.23;;
417;SDS011;49;48.530;9.200;2023-06-10T00:45:53;14.27;;;9.00;;
417;SDS011;49;48.530;9.200;2023-06-10T00:48:20;15.10;;;8.70;;
417;SDS011;49;48.530;9.200;2023-06-10T00:50:49;10.77;;;8.73;;
417;SDS011;49;48.530;9.200;2023-06-10T00:53:16;19.50;;;8.83;;
417;SDS011;49;48.530;9.200;2023-06-10T00:55:43;16.80;;;9.70;;
417;SDS011;49;48.530;9.200;2023-06-10T00:58:10;11.90;;;9.00;;
417;SDS011;49;48.530;9.200;2023-06-10T01:00:38;31.93;;;9.20;;
417;SDS011;49;48.530;9.200;2023-06-10T01:03:05;13.23;;;9.10;;
417;SDS011;49;48.530;9.200;2023-06-10T01:05:32;16.93;;;10.10;;
417;SDS011;49;48.530;9.200;2023-06-10T01:08:03;13.83;;;8.93;;
417;SDS011;49;48.530;9.200;2023-06-10T01:10:38;21.87;;;9.60;;
417;SDS011;49;48.530;9.200;2023-06-10T01:13:10;13.73;;;9.33;;
417;SDS011;49;48.530;9.200;2023-06-10T01:15:38;18.40;;;9.97;;
417;SDS011;49;48.530;9.200;2023-06-10T01:18:06;17.10;;;9.20;;
417;SDS011;49;48.530;9.200;2023-06-10T01:20:36;15.90;;;9.50;;
417;SDS011;49;48.530;9.200;2023-06-10T01:23:06;13.73;;;10.23;;
417;SDS011;49;48.530;9.200;2023-06-10T01:25:36;18.07;;;9.77;;
417;SDS011;49;48.530;9.200;2023-06-10T01:28:07;14.03;;;9.20;;
417;SDS011;49;48.530;9.200;2023-06-10T01:30:43;18.47;;;10.10;;
417;SDS011;49;48.530;9.200;2023-06-10T01:33:15;15.70;;;10.03;;
417;SDS011;49;48.530;9.200;2023-06-10T01:35:48;18.67;;;11.30;;
417;SDS011;49;48.530;9.200;2023-06-10T01:38:18;17.40;;;10.27;;
417;SDS011;49;48.530;9.200;2023-06-10T01:40:46;13.63;;;9.40;;
417;SDS011;49;48.530;9.200;2023-06-10T01:43:15;16.03;;;9.70;;
417;SDS011;49;48.530;9.200;2023-06-10T01:45:42;13.07;;;10.20;;
417;SDS011;49;48.530;9.200;2023-06-10T01:48:09;16.23;;;11.43;;
417;SDS011;49;48.530;9.200;2023-06-10T01:50:36;22.13;;;11.00;;
417;SDS011;49;48.530;9.200;2023-06-10T01:53:03;14.93;;;10.17;;
417;SDS011;49;48.530;9.200;2023-06-10T01:55:31;11.57;;;8.97;;
417;SDS011;49;48.530;9.200;2023-06-10T01:57:58;17.00;;;10.70;;
417;SDS011;49;48.530;9.200;2023-06-10T02:00:25;13.37;;;9.73;;
417;SDS011;49;48.530;9.200;2023-06-10T02:02:52;13.93;;;9.80;;
417;SDS011;49;48.530;9.200;2023-06-10T02:05:19;12.20;;;9.10;;
417;SDS011;49;48.530;9.200;2023-06-10T02:07:46;12.17;;;9.90;;
417;SDS011;49;48.530;9.200;2023-06-10T02:10:13;16.50;;;10.47;;
417;SDS011;49;48.530;9.200;2023-06-10T02:12:41;16.03;;;10.40;;
417;SDS011;49;48.530;9.200;2023-06-10T02:15:08;14.37;;;10.10;;
417;SDS011;49;48.530;9.200;2023-06-10T02:17:35;22.03;;;11.17;;
417;SDS011;49;48.530;9.200;2023-06-10T02:20:02;21.87;;;11.30;;
417;SDS011;49;48.530;9.200;2023-06-10T02:22:32;14.00;;;10.50;;
417;SDS011;49;48.530;9.200;2023-06-10T02:24:59;19.30;;;9.70;;
417;SDS011;49;48.530;9.200;2023-06-10T02:27:25;19.07;;;10.00;;
417;SDS011;49;48.530;9.200;2023-06-10T02:29:54;14.47;;;11.40;;
417;SDS011;49;48.530;9.200;2023-06-10T02:32:20;13.23;;;9.63;;
417;SDS011;49;48.530;9.200;2023-06-10T02:34:47;17.53;;;10.77;;
417;SDS011;49;48.530;9.200;2023-06-10T02:37:16;13.87;;;10.60;;
417;SDS011;49;48.530;9.200;2023-06-10T02:39:43;18.07;;;9.70;;
417;SDS011;49;48.530;9.200;2023-06-10T02:42:10;16.43;;;10.33;;
417;SDS011;49;48.530;9.200;2023-06-10T02:44:37;27.83;;;10.80;;
417;SDS011;49;48.530;9.200;2023-06-10T02:47:06;15.97;;;10.63;;
417;SDS011;49;48.530;9.200;2023-06-10T02:49:33;12.60;;;10.10;;
417;SDS011;49;48.530;9.200;2023-06-10T02:52:00;18.10;;;11.17;;
417;SDS011;49;48.530;9.200;2023-06-10T02:54:27;16.47;;;10.73;;
417;SDS011;49;48.530;9.200;2023-06-10T02:56:54;18.13;;;10.50;;
417;SDS011;49;48.530;9.200;2023-06-10T02:59:21;14.93;;;11.50;;
417;SDS011;49;48.530;9.200;2023-06-10T03:01:48;14.40;;;10.80;;
417;SDS011;49;48.530;9.200;2023-06-10T03:04:16;15.77;;;10.97;;
417;SDS011;49;48.530;9.200;2023-06-10T03:06:43;19.37;;;10.87;;
417;SDS011;49;48.530;9.200;2023-06-10T03:09:12;18.93;;;11.30;;
417;SDS011;49;48.530;9.200;2023-06-10T03:11:39;19.87;;;11.83;;
417;SDS011;49;48.530;9.200;2023-06-10T03:14:06;11.50;;;9.50;;
417;SDS011;49;48.530;9.200;2023-06-10T03:16:33;12.77;;;10.57;;
417;SDS011;49;48.530;9.200;2023-06-10T03:19:00;23.10;;;11.40;;
417;SDS011;49;48.530;9.200;2023-06-10T03:21:28;11.13;;;9.67;;
417;SDS011;49;48.530;9.200;2023-06-10T03:23:55;19.50;;;11.03;;
417;SDS011;49;48.530;9.200;2023-06-10T03:26:22;18.63;;;10.17;;
417;SDS011;49;48.530;9.200;2023-06-10T03:28:49;21.83;;;9.90;;
417;SDS011;49;48.530;9.200;2023-06-10T03:31:15;33.30;;;11.93;;
417;SDS011;49;48.530;9.200;2023-06-10T03:33:42;26.37;;;11.43;;
417;SDS011;49;48.530;9.200;2023-06-10T03:36:09;24.30;;;11.03;;
417;SDS011;49;48.530;9.200;2023-06-10T03:38:38;16.33;;;11.20;;
417;SDS011;49;48.530;9.200;2023-06-10T03:41:05;15.97;;;11.10;;
417;SDS011;49;48.530;9.200;2023-06-10T03:43:31;16.07;;;11.70;;
417;SDS011;49;48.530;9.200;2023-06-10T03:45:58;16.20;;;11.30;;
417;SDS011;49;48.530;9.200;2023-06-10T03:48:25;17.17;;;11.80;;
417;SDS011;49;48.530;9.200;2023-06-10T03:50:52;14.60;;;11.73;;
417;SDS011;49;48.530;9.200;2023-06-10T03:53:19;14.03;;;11.37;;
417;SDS011;49;48.530;9.200;2023-06-10T03:55:48;18.93;;;12.40;;
417;SDS011;49;48.530;9.200;2023-06-10T03:58:15;15.47;;;11.57;;
417;SDS011;49;48.530;9.200;2023-06-10T04:00:43;17.53;;;11.80;;
417;SDS011;49;48.530;9.200;2023-06-10T04:03:10;17.30;;;11.90;;
417;SDS011;49;48.530;9.200;2023-06-10T04:05:39;18.70;;;12.03;;
417;SDS011;49;48.530;9.200;2023-06-10T04:08:07;14.43;;;11.70;;
417;SDS011;49;48.530;9.200;2023-06-10T04:10:34;15.10;;;12.00;;
417;SDS011;49;48.530;9.200;2023-06-10T04:13:02;16.73;;;11.30;;
417;SDS011;49;48.530;9.200;2023-06-10T04:15:30;15.43;;;11.93;;
417;SDS011;49;48.530;9.200;2023-06-10T04:17:58;15.40;;;11.70;;
417;SDS011;49;48.530;9.200;2023-06-10T04:20:26;14.80;;;11.20;;
417;SDS011;49;48.530;9.200;2023-06-10T04:22:53;14.80;;;11.20;;
417;SDS011;49;48.530;9.200;2023-06-10T04:25:20;17.90;;;11.37;;
417;SDS011;49;48.530;9.200;2023-06-10T04:27:46;17.63;;;10.50;;
417;SDS011;49;48.530;9.200;2023-06-10T04:30:15;13.83;;;10.90;;
417;SDS011;49;48.530;9.200;2023-06-10T04:32:42;16.43;;;10.93;;
417;SDS011;49;48.530;9.200;2023-06-10T04:35:11;14.93;;;10.07;;
417;SDS011;49;48.530;9.200;2023-06-10T04:37:38;14.23;;;9.97;;
417;SDS011;49;48.530;9.200;2023-06-10T04:40:06;16.53;;;10.87;;
417;SDS011;49;48.530;9.200;2023-06-10T04:42:33;13.97;;;9.70;;
417;SDS011;49;48.530;9.200;2023-06-10T04:45:00;14.93;;;9.87;;
417;SDS011;49;48.530;9.200;2023-06-10T04:47:30;13.47;;;10.60;;
417;SDS011;49;48.530;9.200;2023-06-10T04:49:58;16.00;;;10.57;;
417;SDS011;49;48.530;9.200;2023-06-10T04:52:25;16.67;;;9.60;;
417;SDS011;49;48.530;9.200;2023-06-10T04:54:52;13.00;;;10.20;;
417;SDS011;49;48.530;9.200;2023-06-10T04:57:19;20.43;;;10.10;;
417;SDS011;49;48.530;9.200;2023-06-10T04:59:46;15.40;;;10.23;;
417;SDS011;49;48.530;9.200;2023-06-10T05:02:13;18.87;;;9.70;;
417;SDS011;49;48.530;9.200;2023-06-10T05:04:41;15.63;;;9.63;;
417;SDS011;49;48.530;9.200;2023-06-10T05:07:08;26.93;;;10.70;;
417;SDS011;49;48.530;9.200;2023-06-10T05:09:35;13.50;;;10.20;;
417;SDS011;49;48.530;9.200;2023-06-10T05:12:02;14.87;;;9.97;;
417;SDS011;49;48.530;9.200;2023-06-10T05:14:29;16.47;;;11.03;;
417;SDS011;49;48.530;9.200;2023-06-10T05:16:56;16.50;;;10.53;;
417;SDS011;49;48.530;9.200;2023-06-10T05:19:23;12.13;;;9.60;;
417;SDS011;49;48.530;9.200;2023-06-10T05:21:51;13.60;;;9.83;;
417;SDS011;49;48.530;9.200;2023-06-10T05:24:18;11.60;;;8.67;;
417;SDS011;49;48.530;9.200;2023-06-10T05:26:46;20.70;;;9.43;;
417;SDS011;49;48.530;9.200;2023-06-10T05:29:13;18.87;;;10.33;;
417;SDS011;49;48.530;9.200;2023-06-10T05:31:41;22.23;;;8.90;;
417;SDS011;49;48.530;9.200;2023-06-10T05:34:08;13.80;;;9.70;;
417;SDS011;49;48.530;9.200;2023-06-10T05:36:35;11.87;;;9.43;;
417;SDS011;49;48.530;9.200;2023-06-10T05:39:03;11.70;;;8.80;;
417;SDS011;49;48.530;9.200;2023-06-10T05:41:30;12.00;;;8.60;;
417;SDS011;49;48.530;9.200;2023-06-10T05:43:57;13.83;;;8.20;;
417;SDS011;49;48.530;9.200;2023-06-10T05:46:24;9.20;;;7.90;;
417;SDS011;49;48.530;9.200;2023-06-10T05:48:50;14.83;;;7.80;;
417;SDS011;49;48.530;9.200;2023-06-10T05:51:17;8.80;;;7.30;;
417;SDS011;49;48.530;9.200;2023-06-10T05:53:44;9.93;;;7.00;;
417;SDS011;49;48.530;9.200;2023-06-10T05:56:12;20.43;;;7.20;;
417;SDS011;49;48.530;9.200;2023-06-10T05:58:39;13.77;;;7.90;;
417;SDS011;49;48.530;9.200;2023-06-10T06:01:06;7.93;;;6.43;;
417;SDS011;49;48.530;9.200;2023-06-10T06:03:33;10.87;;;7.23;;
417;SDS011;49;48.530;9.200;2023-06-10T06:06:00;21.97;;;7.07;;
417;SDS011;49;48.530;9.200;2023-06-10T06:08:27;8.73;;;6.13;;
417;SDS011;49;48.530;9.200;2023-06-10T06:10:54;10.37;;;7.10;;
417;SDS011;49;48.530;9.200;2023-06-10T06:13:22;9.63;;;7.07;;
417;SDS011;49;48.530;9.200;2023-06-10T06:15:49;21.57;;;6.53;;
417;SDS011;49;48.530;9.200;2023-06-10T06:18:16;7.53;;;6.47;;
417;SDS011;49;48.530;9.200;2023-06-10T06:20:43;10.70;;;6.47;;
417;SDS011;49;48.530;9.200;2023-06-10T06:23:10;12.00;;;6.60;;
417;SDS011;49;48.530;9.200;2023-06-10T06:25:37;11.37;;;6.00;;
417;SDS011;49;48.530;9.200;2023-06-10T06:28:04;17.00;;;6.50;;
417;SDS011;49;48.530;9.200;2023-06-10T06:30:33;8.20;;;6.10;;
417;SDS011;49;48.530;9.200;2023-06-10T06:33:00;7.53;;;6.40;;
417;SDS011;49;48.530;9.200;2023-06-10T06:35:27;7.63;;;6.10;;
417;SDS011;49;48.530;9.200;2023-06-10T06:37:56;8.30;;;5.63;;
417;SDS011;49;48.530;9.200;2023-06-10T06:40:23;7.60;;;5.63;;
417;SDS011;49;48.530;9.200;2023-06-10T06:42:50;7.03;;;6.00;;
417;SDS011;49;48.530;9.200;2023-06-10T06:45:17;9.63;;;6.37;;
417;SDS011;49;48.530;9.200;2023-06-10T06:47:45;8.10;;;6.57;;
417;SDS011;49;48.530;9.200;2023-06-10T06:50:12;10.60;;;5.83;;
417;SDS011;49;48.530;9.200;2023-06-10T06:52:39;6.50;;;5.70;;
417;SDS011;49;48.530;9.200;2023-06-10T06:55:06;6.50;;;5.40;;
417;SDS011;49;48.530;9.200;2023-06-10T06:57:34;7.60;;;6.40;;
417;SDS011;49;48.530;9.200;2023-06-10T07:00:01;7.13;;;6.07;;
417;SDS011;49;48.530;9.200;2023-06-10T07:02:29;7.10;;;5.50;;
417;SDS011;49;48.530;9.200;2023-06-10T07:04:59;6.43;;;5.80;;
417;SDS011;49;48.530;9.200;2023-06-10T07:07:26;12.23;;;6.10;;
417;SDS011;49;48.530;9.200;2023-06-10T07:09:53;8.50;;;5.50;;
417;SDS011;49;48.530;9.200;2023-06-10T07:12:20;6.80;;;5.60;;
417;SDS011;49;48.530;9.200;2023-06-10T07:14:49;10.10;;;5.90;;
417;SDS011;49;48.530;9.200;2023-06-10T07:17:15;7.67;;;6.03;;
417;SDS011;49;48.530;9.200;2023-06-10T07:19:43;10.00;;;5.50;;
417;SDS011;49;48.530;9.200;2023-06-10T07:22:11;14.40;;;5.23;;
417;SDS011;49;48.530;9.200;2023-06-10T07:24:38;6.57;;;5.23;;
417;SDS011;49;48.530;9.200;2023-06-10T07:27:05;6.10;;;5.30;;
417;SDS011;49;48.530;9.200;2023-06-10T07:29:32;6.90;;;5.60;;
417;SDS011;49;48.530;9.200;2023-06-10T07:32:00;10.20;;;5.77;;
417;SDS011;49;48.530;9.200;2023-06-10T07:34:28;8.90;;;5.43;;
417;SDS011;49;48.530;9.200;2023-06-10T07:36:55;6.70;;;5.63;;
417;SDS011;49;48.530;9.200;2023-06-10T07:39:23;6.80;;;5.20;;
417;SDS011;49;48.530;9.200;2023-06-10T07:41:50;8.57;;;5.10;;
417;SDS011;49;48.530;9.200;2023-06-10T07:44:18;9.20;;;5.23;;
417;SDS011;49;48.530;9.200;2023-06-10T07:46:46;7.10;;;5.30;;
417;SDS011;49;48.530;9.200;2023-06-10T07:49:13;7.10;;;5.67;;
417;SDS011;49;48.530;9.200;2023-06-10T07:51:40;7.87;;;5.53;;
417;SDS011;49;48.530;9.200;2023-06-10T07:54:07;7.10;;;6.30;;
417;SDS011;49;48.530;9.200;2023-06-10T07:56:35;10.20;;;5.70;;
417;SDS011;49;48.530;9.200;2023-06-10T07:59:02;12.93;;;5.30;;
417;SDS011;49;48.530;9.200;2023-06-10T08:01:29;6.40;;;5.50;;
417;SDS011;49;48.530;9.200;2023-06-10T08:03:58;9.70;;;5.70;;
417;SDS011;49;48.530;9.200;2023-06-10T08:06:25;8.13;;;6.00;;
417;SDS011;49;48.530;9.200;2023-06-10T08:08:52;8.77;;;6.27;;
417;SDS011;49;48.530;9.200;2023-06-10T08:11:19;6.80;;;5.47;;
417;SDS011;49;48.530;9.200;2023-06-10T08:13:47;6.77;;;5.87;;
417;SDS011;49;48.530;9.200;2023-06-10T08:16:14;7.97;;;6.10;;
417;SDS011;49;48.530;9.200;2023-06-10T08:18:41;11.90;;;6.30;;
417;SDS011;49;48.530;9.200;2023-06-10T08:21:08;10.13;;;7.53;;
417;SDS011;49;48.530;9.200;2023-06-10T08:23:35;8.93;;;5.80;;
417;SDS011;49;48.530;9.200;2023-06-10T08:26:02;5.83;;;5.50;;
417;SDS011;49;48.530;9.200;2023-06-10T08:28:29;6.80;;;5.80;;
417;SDS011;49;48.530;9.200;2023-06-10T08:30:57;17.53;;;6.07;;
417;SDS011;49;48.530;9.200;2023-06-10T08:33:24;12.33;;;5.30;;
417;SDS011;49;48.530;9.200;2023-06-10T08:35:51;5.60;;;5.17;;
417;SDS011;49;48.530;9.200;2023-06-10T08:38:18;7.60;;;5.50;;
417;SDS011;49;48.530;9.200;2023-06-10T08:40:45;5.60;;;4.93;;
417;SDS011;49;48.530;9.200;2023-06-10T08:43:17;7.93;;;5.27;;
417;SDS011;49;48.530;9.200;2023-06-10T08:45:48;10.73;;;5.27;;
417;SDS011;49;48.530;9.200;2023-06-10T08:48:17;7.10;;;5.70;;
417;SDS011;49;48.530;9.200;2023-06-10T08:50:46;7.17;;;5.40;;
417;SDS011;49;48.530;9.200;2023-06-10T08:53:17;10.00;;;5.10;;
417;SDS011;49;48.530;9.200;2023-06-10T08:55:46;8.17;;;5.17;;
417;SDS011;49;48.530;9.200;2023-06-10T08:58:17;12.83;;;5.40;;
417;SDS011;49;48.530;9.200;2023-06-10T09:00:44;5.60;;;5.03;;
417;SDS011;49;48.530;9.200;2023-06-10T09:03:12;16.53;;;5.53;;
417;SDS011;49;48.530;9.200;2023-06-10T09:05:41;15.27;;;4.90;;
417;SDS011;49;48.530;9.200;2023-06-10T09:08:09;6.17;;;5.47;;
417;SDS011;49;48.530;9.200;2023-06-10T09:10:36;8.63;;;4.93;;
417;SDS011;49;48.530;9.200;2023-06-10T09:13:06;11.80;;;4.83;;
417;SDS011;49;48.530;9.200;2023-06-10T09:15:33;5.47;;;5.17;;
417;SDS011;49;48.530;9.200;2023-06-10T09:18:01;5.27;;;4.40;;
417;SDS011;49;48.530;9.200;2023-06-10T09:20:30;6.50;;;5.23;;
417;SDS011;49;48.530;9.200;2023-06-10T09:23:00;7.93;;;4.67;;
417;SDS011;49;48.530;9.200;2023-06-10T09:25:35;8.30;;;4.57;;
417;SDS011;49;48.530;9.200;2023-06-10T09:28:03;14.03;;;4.13;;
417;SDS011;49;48.530;9.200;2023-06-10T09:30:32;6.13;;;4.60;;
417;SDS011;49;48.530;9.200;2023-06-10T09:33:00;8.70;;;4.97;;
417;SDS011;49;48.530;9.200;2023-06-10T09:35:29;8.07;;;5.00;;
417;SDS011;49;48.530;9.200;2023-06-10T09:37:57;10.23;;;4.90;;
417;SDS011;49;48.530;9.200;2023-06-10T09:40:26;4.90;;;4.07;;
417;SDS011;49;48.530;9.200;2023-06-10T09:42:54;6.90;;;4.33;;
417;SDS011;49;48.530;9.200;2023-06-10T09:45:22;13.83;;;4.37;;
417;SDS011;49;48.530;9.200;2023-06-10T09:47:53;12.63;;;4.73;;
417;SDS011;49;48.530;9.200;2023-06-10T09:50:21;10.40;;;4.53;;
417;SDS011;49;48.530;9.200;2023-06-10T09:52:48;4.93;;;4.43;;
417;SDS011;49;48.530;9.200;2023-06-10T09:55:15;5.80;;;4.20;;
417;SDS011;49;48.530;9.200;2023-06-10T09:57:44;6.60;;;4.20;;
417;SDS011;49;48.530;9.200;2023-06-10T10:00:15;4.70;;;3.80;;
417;SDS011;49;48.530;9.200;2023-06-10T10:02:46;4.60;;;3.87;;
417;SDS011;49;48.530;9.200;2023-06-10T10:05:14;4.70;;;3.97;;
417;SDS011;49;48.530;9.200;2023-06-10T10:07:41;5.23;;;4.40;;
417;SDS011;49;48.530;9.200;2023-06-10T10:10:09;4.50;;;3.70;;
417;SDS011;49;48.530;9.200;2023-06-10T10:12:38;4.63;;;3.83;;
417;SDS011;49;48.530;9.200;2023-06-10T10:15:08;6.60;;;4.40;;
417;SDS011;49;48.530;9.200;2023-06-10T10:17:37;4.50;;;4.23;;
417;SDS011;49;48.530;9.200;2023-06-10T10:20:09;4.40;;;4.13;;
417;SDS011;49;48.530;9.200;2023-06-10T10:22:41;5.33;;;4.23;;
417;SDS011;49;48.530;9.200;2023-06-10T10:25:11;5.10;;;4.77;;
417;SDS011;49;48.530;9.200;2023-06-10T10:27:43;5.33;;;3.90;;
417;SDS011;49;48.530;9.200;2023-06-10T10:30:16;5.07;;;4.70;;
417;SDS011;49;48.530;9.200;2023-06-10T10:32:50;4.33;;;4.10;;
417;SDS011;49;48.530;9.200;2023-06-10T10:35:23;5.30;;;4.20;;
417;SDS011;49;48.530;9.200;2023-06-10T10:37:52;27.67;;;4.83;;
417;SDS011;49;48.530;9.200;2023-06-10T10:40:20;9.07;;;4.07;;
417;SDS011;49;48.530;9.200;2023-06-10T10:42:48;5.90;;;4.20;;
417;SDS011;49;48.530;9.200;2023-06-10T10:45:17;14.23;;;5.67;;
417;SDS011;49;48.530;9.200;2023-06-10T10:47:45;6.60;;;4.70;;
417;SDS011;49;48.530;9.200;2023-06-10T10:50:13;5.13;;;4.13;;
417;SDS011;49;48.530;9.200;2023-06-10T10:52:52;11.40;;;5.27;;
417;SDS011;49;48.530;9.200;2023-06-10T10:55:21;4.30;;;3.87;;
417;SDS011;49;48.530;9.200;2023-06-10T10:57:55;6.97;;;4.70;;
417;SDS011;49;48.530;9.200;2023-06-10T11:00:32;8.00;;;4.27;;
417;SDS011;49;48.530;9.200;2023-06-10T11:03:04;5.00;;;4.37;;
417;SDS011;49;48.530;9.200;2023-06-10T11:05:37;8.33;;;4.30;;
417;SDS011;49;48.530;9.200;2023-06-10T11:08:07;7.20;;;4.63;;
417;SDS011;49;48.530;9.200;2023-06-10T11:10:35;6.10;;;4.47;;
417;SDS011;49;48.530;9.200;2023-06-10T11:13:07;5.10;;;4.87;;
417;SDS011;49;48.530;9.200;2023-06-10T11:15:39;7.90;;;4.30;;
417;SDS011;49;48.530;9.200;2023-06-10T11:18:22;10.07;;;4.23;;
417;SDS011;49;48.530;9.200;2023-06-10T11:20:53;5.77;;;4.73;;
417;SDS011;49;48.530;9.200;2023-06-10T11:23:26;5.30;;;4.70;;
417;SDS011;49;48.530;9.200;2023-06-10T11:26:15;7.13;;;4.00;;
417;SDS011;49;48.530;9.200;2023-06-10T11:31:38;4.77;;;4.10;;
417;SDS011;49;48.530;9.200;2023-06-10T11:34:07;7.40;;;4.53;;
417;SDS011;49;48.530;9.200;2023-06-10T11:36:38;11.10;;;3.97;;
417;SDS011;49;48.530;9.200;2023-06-10T11:39:08;6.20;;;4.53;;
417;SDS011;49;48.530;9.200;2023-06-10T11:41:37;6.97;;;4.40;;
417;SDS011;49;48.530;9.200;2023-06-10T11:44:07;5.80;;;4.57;;
417;SDS011;49;48.530;9.200;2023-06-10T11:46:35;6.33;;;4.57;;
417;SDS011;49;48.530;9.200;2023-06-10T11:49:04;6.37;;;4.43;;
417;SDS011;49;48.530;9.200;2023-06-10T11:51:32;8.10;;;4.37;;
417;SDS011;49;48.530;9.200;2023-06-10T11:54:01;9.00;;;4.80;;
417;SDS011;49;48.530;9.200;2023-06-10T11:56:29;4.90;;;4.47;;
417;SDS011;49;48.530;9.200;2023-06-10T11:58:58;4.50;;;4.20;;
417;SDS011;49;48.530;9.200;2023-06-10T12:01:29;3.97;;;3.70;;
417;SDS011;49;48.530;9.200;2023-06-10T12:03:57;9.73;;;4.27;;
417;SDS011;49;48.530;9.200;2023-06-10T12:06:28;6.40;;;4.43;;
417;SDS011;49;48.530;9.200;2023-06-10T12:09:04;5.50;;;3.90;;
417;SDS011;49;48.530;9.200;2023-06-10T12:11:32;13.50;;;4.70;;
417;SDS011;49;48.530;9.200;2023-06-10T12:13:59;6.97;;;4.27;;
417;SDS011;49;48.530;9.200;2023-06-10T12:16:29;9.97;;;4.70;;
417;SDS011;49;48.530;9.200;2023-06-10T12:19:01;6.10;;;4.43;;
417;SDS011;49;48.530;9.200;2023-06-10T12:21:31;4.60;;;4.10;;
417;SDS011;49;48.530;9.200;2023-06-10T12:24:03;5.70;;;4.27;;
417;SDS011;49;48.530;9.200;2023-06-10T12:26:41;7.03;;;3.80;;
417;SDS011;49;48.530;9.200;2023-06-10T12:29:16;6.60;;;4.13;;
417;SDS011;49;48.530;9.200;2023-06-10T12:31:52;9.23;;;4.53;;
417;SDS011;49;48.530;9.200;2023-06-10T12:34:30;6.70;;;4.23;;
417;SDS011;49;48.530;9.200;2023-06-10T12:37:10;6.10;;;4.23;;
417;SDS011;49;48.530;9.200;2023-06-10T12:39:39;6.40;;;4.43;;
417;SDS011;49;48.530;9.200;2023-06-10T12:42:08;5.53;;;4.63;;
417;SDS011;49;48.530;9.200;2023-06-10T12:44:39;7.40;;;4.43;;
417;SDS011;49;48.530;9.200;2023-06-10T12:47:07;9.03;;;5.23;;
417;SDS011;49;48.530;9.200;2023-06-10T12:49:35;19.33;;;4.53;;
417;SDS011;49;48.530;9.200;2023-06-10T12:52:05;6.10;;;4.30;;
417;SDS011;49;48.530;9.200;2023-06-10T12:54:33;5.27;;;4.37;;
417;SDS011;49;48.530;9.200;2023-06-10T12:57:00;8.20;;;4.53;;
417;SDS011;49;48.530;9.200;2023-06-10T12:59:28;5.60;;;4.10;;
417;SDS011;49;48.530;9.200;2023-06-10T13:01:56;4.23;;;3.80;;
417;SDS011;49;48.530;9.200;2023-06-10T13:04:24;8.87;;;4.20;;
417;SDS011;49;48.530;9.200;2023-06-10T13:06:52;5.87;;;3.90;;
417;SDS011;49;48.530;9.200;2023-06-10T13:09:21;9.00;;;4.03;;
417;SDS011;49;48.530;9.200;2023-06-10T13:11:48;11.43;;;4.33;;
417;SDS011;49;48.530;9.200;2023-06-10T13:14:15;8.60;;;4.00;;
417;SDS011;49;48.530;9.200;2023-06-10T13:16:42;3.60;;;3.50;;
417;SDS011;49;48.530;9.200;2023-06-10T13:19:09;4.37;;;3.73;;
417;SDS011;49;48.530;9.200;2023-06-10T13:21:36;9.70;;;4.37;;
417;SDS011;49;48.530;9.200;2023-06-10T13:24:04;4.50;;;4.20;;
417;SDS011;49;48.530;9.200;2023-06-10T13:26:33;6.93;;;3.73;;
417;SDS011;49;48.530;9.200;2023-06-10T13:29:00;6.83;;;3.93;;
417;SDS011;49;48.530;9.200;2023-06-10T13:31:28;5.10;;;3.77;;
417;SDS011;49;48.530;9.200;2023-06-10T13:33:55;5.00;;;3.73;;
417;SDS011;49;48.530;9.200;2023-06-10T13:36:22;6.50;;;4.10;;
417;SDS011;49;48.530;9.200;2023-06-10T13:38:49;6.93;;;4.00;;
417;SDS011;49;48.530;9.200;2023-06-10T13:41:17;6.23;;;3.70;;
417;SDS011;49;48.530;9.200;2023-06-10T13:43:46;5.00;;;3.70;;
417;SDS011;49;48.530;9.200;2023-06-10T13:46:13;8.70;;;4.10;;
417;SDS011;49;48.530;9.200;2023-06-10T13:48:41;10.83;;;3.90;;
417;SDS011;49;48.530;9.200;2023-06-10T13:51:08;6.27;;;3.50;;
417;SDS011;49;48.530;9.200;2023-06-10T13:53:36;5.30;;;4.20;;
417;SDS011;49;48.530;9.200;2023-06-10T13:56:04;4.90;;;3.97;;
417;SDS011;49;48.530;9.200;2023-06-10T13:58:31;5.27;;;4.23;;
417;SDS011;49;48.530;9.200;2023-06-10T14:01:05;6.87;;;3.80;;
417;SDS011;49;48.530;9.200;2023-06-10T14:03:35;5.33;;;4.10;;
417;SDS011;49;48.530;9.200;2023-06-10T14:06:07;9.53;;;3.57;;
417;SDS011;49;48.530;9.200;2023-06-10T14:08:38;3.90;;;3.50;;
417;SDS011;49;48.530;9.200;2023-06-10T14:11:08;5.90;;;3.70;;
417;SDS011;49;48.530;9.200;2023-06-10T14:13:36;4.07;;;3.50;;
417;SDS011;49;48.530;9.200;2023-06-10T14:16:05;7.10;;;4.03;;
417;SDS011;49;48.530;9.200;2023-06-10T14:18:33;6.73;;;3.67;;
417;SDS011;49;48.530;9.200;2023-06-10T14:21:07;7.03;;;4.13;;
417;SDS011;49;48.530;9.200;2023-06-10T14:23:39;3.73;;;3.63;;
417;SDS011;49;48.530;9.200;2023-06-10T14:26:09;4.00;;;3.60;;
417;SDS011;49;48.530;9.200;2023-06-10T14:28:39;4.07;;;3.50;;
417;SDS011;49;48.530;9.200;2023-06-10T14:31:08;4.70;;;3.50;;
417;SDS011;49;48.530;9.200;2023-06-10T14:33:35;6.43;;;3.87;;
417;SDS011;49;48.530;9.200;2023-06-10T14:36:03;5.27;;;4.10;;
417;SDS011;49;48.530;9.200;2023-06-10T14:38:30;7.50;;;4.20;;
417;SDS011;49;48.530;9.200;2023-06-10T14:40:57;14.13;;;3.80;;
417;SDS011;49;48.530;9.200;2023-06-10T14:43:24;15.30;;;3.50;;
417;SDS011;49;48.530;9.200;2023-06-10T14:45:51;5.20;;;3.90;;
417;SDS011;49;48.530;9.200;2023-06-10T14:48:21;6.43;;;3.93;;
417;SDS011;49;48.530;9.200;2023-06-10T14:50:49;3.77;;;3.57;;
417;SDS011;49;48.530;9.200;2023-06-10T14:53:20;3.83;;;3.67;;
417;SDS011;49;48.530;9.200;2023-06-10T14:55:47;7.23;;;3.93;;
417;SDS011;49;48.530;9.200;2023-06-10T14:58:14;6.40;;;3.73;;
417;SDS011;49;48.530;9.200;2023-06-10T15:00:41;5.57;;;3.60;;
417;SDS011;49;48.530;9.200;2023-06-10T15:03:08;4.17;;;3.70;;
417;SDS011;49;48.530;9.200;2023-06-10T15:05:37;6.07;;;3.63;;
417;SDS011;49;48.530;9.200;2023-06-10T15:08:04;6.97;;;4.80;;
417;SDS011;49;48.530;9.200;2023-06-10T15:10:31;4.40;;;3.90;;
417;SDS011;49;48.530;9.200;2023-06-10T15:12:58;6.13;;;3.93;;
417;SDS011;49;48.530;9.200;2023-06-10T15:15:25;4.50;;;3.57;;
417;SDS011;49;48.530;9.200;2023-06-10T15:17:52;7.83;;;4.33;;
417;SDS011;49;48.530;9.200;2023-06-10T15:20:20;6.87;;;4.83;;
417;SDS011;49;48.530;9.200;2023-06-10T15:22:49;5.40;;;4.03;;
417;SDS011;49;48.530;9.200;2023-06-10T15:25:20;5.80;;;3.90;;
417;SDS011;49;48.530;9.200;2023-06-10T15:27:49;7.83;;;4.40;;
417;SDS011;49;48.530;9.200;2023-06-10T15:30:18;5.50;;;4.33;;
417;SDS011;49;48.530;9.200;2023-06-10T15:32:53;10.60;;;4.90;;
417;SDS011;49;48.530;9.200;2023-06-10T15:35:22;6.47;;;5.13;;
417;SDS011;49;48.530;9.200;2023-06-10T15:37:57;5.37;;;4.50;;
417;SDS011;49;48.530;9.200;2023-06-10T15:40:33;7.73;;;4.70;;
417;SDS011;49;48.530;9.200;2023-06-10T15:43:04;10.50;;;4.50;;
417;SDS011;49;48.530;9.200;2023-06-10T15:45:31;6.33;;;4.23;;
417;SDS011;49;48.530;9.200;2023-06-10T15:48:01;4.73;;;4.43;;
417;SDS011;49;48.530;9.200;2023-06-10T15:50:31;7.60;;;4.70;;
417;SDS011;49;48.530;9.200;2023-06-10T15:53:15;4.80;;;4.40;;
417;SDS011;49;48.530;9.200;2023-06-10T15:55:42;11.10;;;5.47;;
417;SDS011;49;48.530;9.200;2023-06-10T15:58:13;9.37;;;4.40;;
417;SDS011;49;48.530;9.200;2023-06-10T16:00:46;5.67;;;4.53;;